Time;durP1;ratioP1;P1;durP2;ratioP2;P2;SDS_P1;SDS_P2;PMS_P1;PMS_P2;Temp;Humidity;BMP_temperature;BMP_pressure;BME280_temperature;BME280_humidity;BME280_pressure;Samples;Min_cycle;Max_cycle;Signal;HPM_P1;HPM_P2
2021/09/27 00:00:28;;;;;;;5.75;4.55;;;;;;;12.22;100.00;93636.38;1757008;80;20953;-87
2021/09/27 00:02:54;;;;;;;5.60;4.37;;;;;;;12.17;100.00;93633.32;1769182;79;21541;-89
2021/09/27 00:05:22;;;;;;;6.58;4.80;;;;;;;12.16;100.00;93638.00;1786425;78;21096;-88
2021/09/27 00:07:48;;;;;;;8.73;5.47;;;;;;;12.21;100.00;93638.16;1768543;78;21116;-89
2021/09/27 00:10:20;;;;;;;6.85;4.92;;;;;;;12.24;100.00;93637.36;1699250;81;21149;-89
2021/09/27 00:12:46;;;;;;;11.93;5.83;;;;;;;12.25;100.00;93630.73;1760787;80;21026;-89
2021/09/27 00:15:17;;;;;;;6.53;4.40;;;;;;;12.23;100.00;93634.45;1746327;80;21095;-88
2021/09/27 00:17:44;;;;;;;6.22;4.10;;;;;;;12.24;100.00;93634.05;1754075;80;21031;-88
2021/09/27 00:20:11;;;;;;;4.25;3.85;;;;;;;12.29;100.00;93629.52;1750288;78;21602;-89
2021/09/27 00:22:38;;;;;;;6.67;4.33;;;;;;;12.25;100.00;93623.91;1727270;79;20991;-90
2021/09/27 00:25:05;;;;;;;6.33;3.92;;;;;;;12.16;100.00;93627.09;1775702;79;21513;-89
2021/09/27 00:27:31;;;;;;;5.60;4.20;;;;;;;12.03;100.00;93624.05;1814776;78;21065;-89
2021/09/27 00:29:59;;;;;;;5.35;4.28;;;;;;;11.96;100.00;93630.13;1684506;78;21007;-88
2021/09/27 00:32:27;;;;;;;4.47;4.10;;;;;;;11.93;100.00;93635.03;1718550;81;21104;-88
2021/09/27 00:34:53;;;;;;;8.05;4.60;;;;;;;11.90;100.00;93625.10;1735602;81;21034;-89
2021/09/27 00:37:19;;;;;;;5.40;4.47;;;;;;;11.91;100.00;93628.01;1719809;80;21760;-88
2021/09/27 00:39:45;;;;;;;4.75;4.33;;;;;;;11.98;100.00;93623.70;1785193;80;21069;-88
2021/09/27 00:42:12;;;;;;;9.10;4.28;;;;;;;12.03;100.00;93618.59;1721669;80;21095;-87
2021/09/27 00:44:38;;;;;;;5.70;3.83;;;;;;;12.03;100.00;93613.14;1706906;83;21654;-88
2021/09/27 00:47:05;;;;;;;4.40;3.75;;;;;;;11.98;100.00;93611.44;1717547;81;21037;-89
2021/09/27 00:49:31;;;;;;;5.60;4.20;;;;;;;11.93;100.00;93609.14;1765317;80;21053;-88
2021/09/27 00:51:57;;;;;;;5.72;5.22;;;;;;;11.90;100.00;93607.98;1784859;80;21049;-88
2021/09/27 00:54:27;;;;;;;5.35;4.85;;;;;;;11.93;100.00;93609.14;1714621;80;21552;-88
2021/09/27 00:56:58;;;;;;;5.10;4.70;;;;;;;11.98;100.00;93604.63;1741363;81;21584;-88
2021/09/27 00:59:25;;;;;;;6.90;4.60;;;;;;;12.00;100.00;93595.45;1775106;80;20963;-88
2021/09/27 01:01:52;;;;;;;6.47;4.72;;;;;;;11.98;100.00;93601.31;1777270;80;21030;-89
2021/09/27 01:04:18;;;;;;;11.08;4.95;;;;;;;11.97;100.00;93597.63;1757375;80;21007;-87
2021/09/27 01:06:59;;;;;;;5.75;4.83;;;;;;;11.94;100.00;93604.64;1780231;80;21924;-87
2021/09/27 01:10:02;;;;;;;7.00;4.62;;;;;;;11.90;100.00;93606.03;1763414;80;21136;-89
2021/09/27 01:13:05;;;;;;;8.10;5.15;;;;;;;11.90;100.00;93609.34;1719464;80;21093;-88
2021/09/27 01:15:46;;;;;;;6.17;4.00;;;;;;;11.94;100.00;93609.33;1707363;83;21462;-88
2021/09/27 01:18:26;;;;;;;6.45;4.75;;;;;;;11.91;100.00;93599.98;1769965;80;21033;-88
2021/09/27 01:21:13;;;;;;;5.42;4.92;;;;;;;11.89;100.00;93603.72;1778585;80;21498;-89
2021/09/27 01:24:14;;;;;;;8.23;6.87;;;;;;;11.88;100.00;93604.87;1778615;80;21096;-88
2021/09/27 01:27:26;;;;;;;9.10;6.92;;;;;;;11.87;100.00;93606.82;1738964;80;21070;-88
2021/09/27 01:30:24;;;;;;;6.40;5.35;;;;;;;11.87;100.00;93600.01;1773107;78;21077;-88
2021/09/27 01:33:02;;;;;;;6.03;4.95;;;;;;;11.90;100.00;93606.03;1751170;78;20987;-88
2021/09/27 01:36:04;;;;;;;5.92;5.25;;;;;;;11.91;100.00;93604.08;1730180;81;21049;-87
2021/09/27 01:38:56;;;;;;;8.88;4.90;;;;;;;11.94;100.00;93597.06;1738360;79;21144;-87
2021/09/27 01:41:33;;;;;;;5.42;4.40;;;;;;;11.87;100.00;93592.42;1770748;78;21019;-90
2021/09/27 01:44:17;;;;;;;5.47;4.50;;;;;;;11.79;100.00;93587.58;1732583;79;21591;-87
2021/09/27 01:47:00;;;;;;;6.60;4.53;;;;;;;11.71;100.00;93583.34;1793150;78;21183;-87
2021/09/27 01:49:34;;;;;;;5.70;4.17;;;;;;;11.66;100.00;93583.78;1736774;82;21109;-88
2021/09/27 01:52:18;;;;;;;6.47;4.50;;;;;;;11.65;100.00;93576.16;1726338;81;21127;-88
2021/09/27 01:54:51;;;;;;;9.20;4.47;;;;;;;11.67;100.00;93578.52;1685976;83;21082;-89
2021/09/27 01:57:38;;;;;;;5.17;4.33;;;;;;;11.67;100.00;93577.92;1693244;83;21023;-89
2021/09/27 02:00:13;;;;;;;5.33;4.12;;;;;;;11.68;100.00;93577.33;1660396;84;21482;-88
2021/09/27 02:02:57;;;;;;;4.40;4.00;;;;;;;11.67;100.00;93572.47;1749718;80;21101;-87
2021/09/27 02:05:35;;;;;;;6.10;4.55;;;;;;;11.67;100.00;93574.42;1727546;81;21793;-88
2021/09/27 02:08:24;;;;;;;4.58;4.10;;;;;;;11.68;100.00;93572.66;1724787;81;21063;-89
2021/09/27 02:11:01;;;;;;;6.95;4.60;;;;;;;11.72;100.00;93578.08;1737579;79;21595;-88
2021/09/27 02:13:32;;;;;;;5.83;4.17;;;;;;;11.71;100.00;93571.09;1744462;80;21041;-88
2021/09/27 02:16:13;;;;;;;7.80;4.78;;;;;;;11.73;100.00;93569.32;1742108;80;21050;-88
2021/09/27 02:18:56;;;;;;;6.00;5.40;;;;;;;11.71;100.00;93572.45;1747192;80;21074;-88
2021/09/27 02:21:28;;;;;;;5.28;4.75;;;;;;;11.72;100.00;93566.41;1758957;80;20933;-88
2021/09/27 02:24:06;;;;;;;7.67;4.47;;;;;;;11.72;100.00;93567.19;1765412;80;21491;-87
2021/09/27 02:26:33;;;;;;;4.65;4.22;;;;;;;11.72;100.00;93557.66;1738016;81;21056;-89
2021/09/27 02:28:59;;;;;;;5.15;4.62;;;;;;;11.77;100.00;93552.36;1723722;81;21196;-88
2021/09/27 02:31:32;;;;;;;11.33;4.75;;;;;;;11.80;100.00;93557.79;1734020;81;21115;-88
2021/09/27 02:34:14;;;;;;;7.08;4.85;;;;;;;11.82;100.00;93556.05;1726993;80;21120;-88
2021/09/27 02:37:03;;;;;;;4.50;3.92;;;;;;;11.81;100.00;93552.55;1723972;80;21410;-87
2021/09/27 02:39:35;;;;;;;5.12;3.95;;;;;;;11.87;100.00;93551.55;1762535;80;21655;-88
2021/09/27 02:42:27;;;;;;;4.40;4.00;;;;;;;11.88;100.00;93553.90;1771616;80;21501;-87
2021/09/27 02:44:54;;;;;;;5.53;4.08;;;;;;;11.88;100.00;93555.27;1740491;78;21105;-88
2021/09/27 02:47:26;;;;;;;4.83;4.33;;;;;;;11.92;100.00;93557.94;1718874;81;21004;-88
2021/09/27 02:49:56;;;;;;;6.03;4.50;;;;;;;11.91;100.00;93559.89;1688882;82;21087;-88
2021/09/27 02:52:20;;;;;;;4.90;4.40;;;;;;;11.90;100.00;93556.98;1710797;82;21101;-88
2021/09/27 02:55:04;;;;;;;5.00;4.50;;;;;;;11.89;100.00;93555.44;1742694;81;21062;-88
2021/09/27 02:58:11;;;;;;;5.95;4.83;;;;;;;11.88;100.00;93555.83;1687326;82;21074;-87
2021/09/27 03:00:57;;;;;;;4.90;4.35;;;;;;;11.87;100.00;93557.00;1711847;82;21081;-88
2021/09/27 03:03:35;;;;;;;6.83;5.20;;;;;;;11.87;100.00;93559.14;1728142;81;21129;-88
2021/09/27 03:06:19;;;;;;;5.42;4.92;;;;;;;11.84;100.00;93557.80;1749081;79;21041;-88
2021/09/27 03:09:12;;;;;;;6.08;5.28;;;;;;;11.80;100.00;93556.43;1747432;81;21027;-89
2021/09/27 03:12:24;;;;;;;6.20;4.75;;;;;;;11.76;100.00;93550.23;1749004;81;21497;-88
2021/09/27 03:15:16;;;;;;;5.65;5.12;;;;;;;11.73;100.00;93552.38;1740952;82;21429;-87
2021/09/27 03:17:51;;;;;;;5.95;4.95;;;;;;;11.71;100.00;93554.75;1733835;81;21066;-87
2021/09/27 03:20:39;;;;;;;7.28;5.10;;;;;;;11.72;100.00;93559.60;1688991;83;28163;-87
2021/09/27 03:23:25;;;;;;;10.23;5.08;;;;;;;11.76;100.00;93551.59;1721556;81;21050;-88
2021/09/27 03:25:57;;;;;;;7.35;6.00;;;;;;;11.79;100.00;93549.44;1746177;81;21461;-88
2021/09/27 03:28:57;;;;;;;11.25;7.25;;;;;;;11.73;100.00;93551.02;1703833;84;21026;-87
2021/09/27 03:31:37;;;;;;;11.48;7.30;;;;;;;11.68;100.00;93554.17;1738865;81;21541;-87
2021/09/27 03:34:27;;;;;;;10.28;6.55;;;;;;;11.62;100.00;93552.47;1671986;82;21098;-87
2021/09/27 03:37:02;;;;;;;7.65;6.15;;;;;;;11.59;100.00;93553.85;1682345;83;21139;-87
2021/09/27 03:39:41;;;;;;;;;;;;;;;11.57;100.00;93548.02;1707355;81;21741;-87
2021/09/27 03:42:15;;;;;;;7.65;5.58;;;;;;;11.57;100.00;93548.78;1726508;80;20411;-87
2021/09/27 03:45:11;;;;;;;7.73;4.93;;;;;;;11.54;100.00;93541.41;1718064;81;21081;-87
2021/09/27 03:48:05;;;;;;;7.87;4.90;;;;;;;11.55;100.00;93542.20;1761369;80;20950;-88
2021/09/27 03:50:44;;;;;;;6.60;4.97;;;;;;;11.55;100.00;93553.09;1724857;81;21009;-88
2021/09/27 03:53:22;;;;;;;8.23;5.22;;;;;;;11.54;100.00;93548.80;1700203;81;21190;-87
2021/09/27 03:55:56;;;;;;;5.47;4.95;;;;;;;11.56;100.00;93550.56;1758813;81;21021;-89
2021/09/27 03:58:33;;;;;;;7.17;5.28;;;;;;;11.58;100.00;93544.88;1776666;80;21041;-88
2021/09/27 04:01:22;;;;;;;5.40;4.75;;;;;;;11.54;100.00;93546.08;1741211;80;21035;-88
2021/09/27 04:04:22;;;;;;;4.72;4.28;;;;;;;11.50;100.00;93544.73;1726178;80;21053;-88
2021/09/27 04:07:15;;;;;;;5.45;4.70;;;;;;;11.46;100.00;93543.98;1675106;83;21194;-88
2021/09/27 04:10:02;;;;;;;5.55;4.70;;;;;;;11.41;100.00;93538.97;1699417;82;21046;-87
2021/09/27 04:12:45;;;;;;;4.75;4.25;;;;;;;11.35;100.00;93536.45;1689216;82;21088;-88
2021/09/27 04:15:33;;;;;;;5.17;4.35;;;;;;;11.37;100.00;93536.85;1720156;82;21019;-87
2021/09/27 04:18:32;;;;;;;5.37;4.70;;;;;;;11.38;100.00;93529.63;1687333;80;21289;-88
2021/09/27 04:21:25;;;;;;;5.35;4.90;;;;;;;11.40;100.00;93533.34;1768593;80;21130;-89
2021/09/27 04:24:14;;;;;;;5.80;5.30;;;;;;;11.38;100.00;93536.44;1696461;80;20991;-89
2021/09/27 04:27:11;;;;;;;5.85;5.05;;;;;;;11.35;100.00;93539.95;1761544;80;21157;-90
2021/09/27 04:30:12;;;;;;;5.30;4.50;;;;;;;11.27;100.00;93537.67;1757765;80;21140;-89
2021/09/27 04:32:50;;;;;;;9.15;5.33;;;;;;;11.16;100.00;93540.44;1719971;80;21024;-87
2021/09/27 04:37:47;;;;;;;5.35;4.80;;;;;;;11.00;100.00;93530.59;1712812;81;21516;-89
2021/09/27 04:40:15;;;;;;;6.42;5.80;;;;;;;10.92;100.00;93537.42;1759180;81;21014;-87
2021/09/27 04:43:10;;;;;;;5.87;4.90;;;;;;;10.86;100.00;93534.13;1697664;82;21035;-87
2021/09/27 04:46:04;;;;;;;7.45;5.50;;;;;;;10.78;100.00;93538.82;1724327;80;21584;-88
2021/09/27 04:48:55;;;;;;;7.08;5.83;;;;;;;10.70;100.00;93542.73;1733736;80;21828;-89
2021/09/27 04:51:36;;;;;;;10.18;6.90;;;;;;;10.61;100.00;93543.73;1721917;81;21082;-88
2021/09/27 04:54:26;;;;;;;13.88;7.20;;;;;;;10.50;100.00;93547.06;1726255;79;21598;-88
2021/09/27 04:57:30;;;;;;;7.20;6.08;;;;;;;10.41;100.00;93545.49;1727579;80;21109;-89
2021/09/27 05:00:23;;;;;;;9.23;7.87;;;;;;;10.37;100.00;93550.75;1781760;78;21034;-86
2021/09/27 05:03:23;;;;;;;9.93;7.28;;;;;;;10.34;100.00;93551.52;1732243;79;21132;-88
2021/09/27 05:06:29;;;;;;;8.20;6.85;;;;;;;10.35;100.00;93553.86;1746380;79;21074;-87
2021/09/27 05:09:24;;;;;;;7.47;6.70;;;;;;;10.40;100.00;93556.18;1766284;79;21049;-87
2021/09/27 05:12:38;;;;;;;8.45;7.25;;;;;;;10.38;100.00;93553.09;1676521;79;21487;-87
2021/09/27 05:15:22;;;;;;;10.98;7.20;;;;;;;10.40;100.00;93562.20;1665757;79;20984;-87
2021/09/27 05:18:14;;;;;;;8.43;7.05;;;;;;;10.43;100.00;93560.84;1751021;80;21074;-87
2021/09/27 05:21:13;;;;;;;10.68;7.58;;;;;;;10.44;100.00;93564.33;1721848;82;21102;-86
2021/09/27 05:24:04;;;;;;;8.53;7.42;;;;;;;10.44;100.00;93565.69;1704888;82;21079;-89
2021/09/27 05:26:37;;;;;;;7.92;7.12;;;;;;;10.43;100.00;93562.79;1653268;83;21063;-88
2021/09/27 05:29:39;;;;;;;10.85;7.47;;;;;;;10.42;100.00;93565.33;1782830;79;21359;-89
2021/09/27 05:32:21;;;;;;;9.70;8.00;;;;;;;10.43;100.00;93569.00;1748562;79;21150;-88
2021/09/27 05:35:05;;;;;;;7.28;6.58;;;;;;;10.45;100.00;93567.23;1762370;79;21081;-89
2021/09/27 05:38:15;;;;;;;7.83;7.10;;;;;;;10.48;100.00;93563.74;1783136;78;21062;-89
2021/09/27 05:40:59;;;;;;;7.65;6.85;;;;;;;10.49;100.00;93571.31;1716634;80;21071;-88
2021/09/27 05:44:00;;;;;;;9.38;7.92;;;;;;;10.51;100.00;93571.71;1701270;80;21074;-88
2021/09/27 05:46:40;;;;;;;11.53;9.05;;;;;;;10.50;100.00;93573.66;1719594;81;21045;-88
2021/09/27 05:49:33;;;;;;;10.45;8.23;;;;;;;10.49;100.00;93569.37;1699618;81;21631;-88
2021/09/27 05:52:34;;;;;;;11.50;9.00;;;;;;;10.49;100.00;93569.95;1703718;81;21081;-88
2021/09/27 05:55:30;;;;;;;12.18;9.15;;;;;;;10.53;100.00;93568.80;1700721;81;21061;-87
2021/09/27 05:58:04;;;;;;;11.63;9.23;;;;;;;10.64;100.00;93571.48;1720291;80;21091;-88
2021/09/27 06:00:59;;;;;;;10.95;9.45;;;;;;;10.76;100.00;93570.32;1752842;79;21561;-88
2021/09/27 06:04:18;;;;;;;10.43;8.35;;;;;;;10.89;100.00;93574.16;1742335;80;21041;-89
2021/09/27 06:06:51;;;;;;;11.95;8.60;;;;;;;10.96;100.00;93577.45;1671625;82;21054;-89
2021/09/27 06:09:35;;;;;;;10.50;8.00;;;;;;;10.87;100.00;93567.76;1713112;80;21148;-87
2021/09/27 06:12:23;;;;;;;10.18;8.30;;;;;;;10.85;100.00;93567.36;1654099;83;21106;-88
2021/09/27 06:14:52;;;;;;;10.78;8.20;;;;;;;10.88;100.00;93563.09;1730460;81;21534;-88
2021/09/27 06:17:55;;;;;;;10.13;7.58;;;;;;;10.97;100.00;93564.03;1746915;80;21644;-87
2021/09/27 06:23:47;;;;;;;11.40;9.55;;;;;;;11.11;100.00;93572.15;1698061;82;21086;-87
2021/09/27 06:26:14;;;;;;;14.07;9.48;;;;;;;11.30;100.00;93573.05;1720847;80;21061;-87
2021/09/27 06:28:46;;;;;;;11.22;8.95;;;;;;;11.50;100.00;93568.48;1748908;79;21165;-87
2021/09/27 06:31:41;;;;;;;10.90;9.40;;;;;;;11.64;100.00;93571.90;1762713;79;21060;-86
2021/09/27 06:34:21;;;;;;;12.58;9.48;;;;;;;11.77;100.00;93568.70;1772514;79;21570;-88
2021/09/27 06:36:48;;;;;;;14.50;10.55;;;;;;;11.93;100.00;93567.68;1763147;80;21018;-88
2021/09/27 06:39:18;;;;;;;11.97;9.73;;;;;;;12.05;100.00;93564.47;1744272;81;21053;-87
2021/09/27 06:41:47;;;;;;;14.25;10.75;;;;;;;12.13;100.00;93565.97;1703104;82;21545;-86
2021/09/27 06:44:14;;;;;;;13.55;10.90;;;;;;;12.25;100.00;93561.20;1735535;80;21061;-87
2021/09/27 06:46:40;;;;;;;12.37;10.48;;;;;;;12.36;100.00;93566.75;1742749;80;21530;-87
2021/09/27 06:49:07;;;;;;;14.83;11.70;;;;;;;12.49;100.00;93567.64;1706874;81;21079;-85
2021/09/27 06:51:36;;;;;;;14.60;10.90;;;;;;;12.61;100.00;93573.95;1651781;84;21554;-86
2021/09/27 06:54:02;;;;;;;15.68;12.10;;;;;;;12.67;100.00;93572.33;1667888;84;21103;-87
2021/09/27 06:56:29;;;;;;;14.10;11.63;;;;;;;12.74;100.00;93568.16;1748937;80;21587;-86
2021/09/27 06:58:55;;;;;;;15.65;12.35;;;;;;;12.82;100.00;93569.64;1736476;81;21076;-87
2021/09/27 07:01:23;;;;;;;16.23;12.30;;;;;;;12.92;100.00;93563.13;1716128;82;21134;-85
2021/09/27 07:03:50;;;;;;;15.00;12.93;;;;;;;12.98;100.00;93566.38;1663638;83;21130;-84
2021/09/27 07:06:16;;;;;;;14.00;11.65;;;;;;;13.08;100.00;93560.00;1771467;79;21170;-87
2021/09/27 07:08:42;;;;;;;14.73;12.75;;;;;;;13.18;100.00;93567.91;1683488;84;21652;-87
2021/09/27 07:11:09;;;;;;;15.00;12.30;;;;;;;13.27;100.00;93561.97;1700227;84;21124;-87
2021/09/27 07:13:35;;;;;;;16.93;12.80;;;;;;;13.35;100.00;93565.59;1698012;82;21066;-86
2021/09/27 07:16:01;;;;;;;15.60;12.88;;;;;;;13.45;100.00;93561.77;1742345;80;20998;-87
2021/09/27 07:18:28;;;;;;;18.02;11.40;;;;;;;13.50;100.00;93559.36;1777736;78;21744;-87
2021/09/27 07:20:58;;;;;;;15.53;11.88;;;;;;;13.54;99.55;93560.66;1762690;79;21025;-84
2021/09/27 07:23:22;;;;;;;16.50;12.47;;;;;;;13.53;99.11;93563.98;1778074;78;21070;-87
2021/09/27 07:25:49;;;;;;;18.30;12.93;;;;;;;13.56;99.08;93565.13;1777737;78;21029;-86
2021/09/27 07:28:17;;;;;;;18.17;14.58;;;;;;;13.60;98.98;93560.39;1781789;79;21058;-88
2021/09/27 07:30:43;;;;;;;18.65;15.18;;;;;;;13.67;98.56;93563.62;1764303;79;21219;-88
2021/09/27 07:33:11;;;;;;;23.60;18.17;;;;;;;13.70;98.36;93563.59;1774416;78;21082;-87
2021/09/27 07:35:37;;;;;;;15.63;12.82;;;;;;;13.74;97.92;93558.84;1771398;78;21085;-87
2021/09/27 07:38:03;;;;;;;14.15;12.30;;;;;;;13.77;97.41;93563.48;1761036;79;21065;-86
2021/09/27 07:40:32;;;;;;;15.20;12.15;;;;;;;13.82;97.13;93556.78;1768352;80;21027;-86
2021/09/27 07:42:58;;;;;;;16.07;12.65;;;;;;;13.85;97.23;93555.97;1747204;80;21175;-87
2021/09/27 07:45:26;;;;;;;13.85;12.13;;;;;;;13.90;96.84;93558.82;1741434;80;21035;-87
2021/09/27 07:47:53;;;;;;;14.95;12.30;;;;;;;13.92;96.37;93565.44;1744028;80;21059;-87
2021/09/27 07:50:20;;;;;;;14.95;12.80;;;;;;;13.92;96.30;93561.33;1740046;80;21094;-87
2021/09/27 07:52:48;;;;;;;14.53;11.73;;;;;;;13.91;96.09;93563.09;1765573;78;21061;-87
2021/09/27 07:55:15;;;;;;;15.85;12.78;;;;;;;13.90;96.21;93565.66;1773938;80;21750;-89
2021/09/27 07:57:41;;;;;;;17.40;12.95;;;;;;;13.90;96.11;93569.75;1750296;80;21050;-87
2021/09/27 08:00:09;;;;;;;15.72;12.75;;;;;;;13.91;96.18;93563.86;1757327;80;21553;-88
2021/09/27 08:02:39;;;;;;;17.17;13.50;;;;;;;13.91;95.93;93561.73;1750884;80;21054;-87
2021/09/27 08:05:06;;;;;;;24.85;19.73;;;;;;;13.92;95.81;93566.80;1752568;79;21104;-88
2021/09/27 08:07:34;;;;;;;25.50;18.62;;;;;;;13.96;96.18;93564.78;1768045;79;21132;-87
2021/09/27 08:10:00;;;;;;;19.87;15.23;;;;;;;14.01;95.74;93566.27;1726545;81;21012;-88
2021/09/27 08:12:26;;;;;;;20.02;14.98;;;;;;;14.09;95.57;93571.81;1686271;83;21118;-88
2021/09/27 08:14:54;;;;;;;17.15;13.60;;;;;;;14.09;95.32;93571.22;1718345;83;21549;-87
2021/09/27 08:17:20;;;;;;;18.07;14.65;;;;;;;14.13;95.23;93566.29;1718943;81;21073;-88
2021/09/27 08:19:47;;;;;;;18.02;14.65;;;;;;;14.16;95.10;93564.88;1716580;81;21574;-88
2021/09/27 08:22:13;;;;;;;16.20;12.23;;;;;;;14.20;94.89;93569.69;1726952;80;21112;-88
2021/09/27 08:24:41;;;;;;;13.40;11.97;;;;;;;14.25;94.29;93568.44;1782772;78;21025;-88
2021/09/27 08:27:07;;;;;;;16.50;13.35;;;;;;;14.27;94.17;93567.45;1683761;83;21121;-88
2021/09/27 08:29:35;;;;;;;15.78;13.62;;;;;;;14.32;93.64;93568.34;1710046;82;21062;-88
2021/09/27 08:32:01;;;;;;;16.65;12.20;;;;;;;14.33;93.41;93569.30;1745816;80;21184;-87
2021/09/27 08:34:28;;;;;;;14.73;12.35;;;;;;;14.36;93.22;93569.05;1751542;80;21493;-88
2021/09/27 08:36:56;;;;;;;15.85;13.58;;;;;;;14.40;93.25;93573.87;1727620;80;21078;-88
2021/09/27 08:39:23;;;;;;;17.32;12.88;;;;;;;14.43;93.44;93572.27;1681394;84;21134;-88
2021/09/27 08:42:02;;;;;;;15.53;12.05;;;;;;;14.47;93.20;93570.25;1750839;79;21046;-87
2021/09/27 08:44:49;;;;;;;13.78;11.68;;;;;;;14.51;93.02;93566.28;1775454;80;21740;-88
2021/09/27 08:47:33;;;;;;;14.83;12.45;;;;;;;14.56;93.06;93569.16;1783095;78;21105;-88
2021/09/27 08:50:32;;;;;;;14.87;12.15;;;;;;;14.57;92.32;93563.27;1769927;79;21581;-88
2021/09/27 08:53:03;;;;;;;16.65;13.32;;;;;;;14.61;92.11;93568.67;1765696;79;21045;-88
2021/09/27 08:55:30;;;;;;;19.20;13.20;;;;;;;14.68;91.53;93569.93;1772803;79;21037;-87
2021/09/27 08:58:11;;;;;;;15.58;13.65;;;;;;;14.73;90.87;93562.59;1776661;78;21770;-88
2021/09/27 09:00:48;;;;;;;17.65;12.45;;;;;;;14.80;90.41;93558.97;1770350;78;21061;-88
2021/09/27 09:03:31;;;;;;;14.90;12.13;;;;;;;14.88;89.31;93559.61;1783677;78;21723;-87
2021/09/27 09:06:04;;;;;;;18.77;12.40;;;;;;;14.91;87.94;93565.02;1776839;78;21053;-85
2021/09/27 09:08:46;;;;;;;15.63;12.98;;;;;;;14.95;86.97;93549.30;1751563;80;21055;-87
2021/09/27 09:11:40;;;;;;;15.70;12.58;;;;;;;15.00;86.11;93552.14;1714840;80;21173;-87
2021/09/27 09:14:34;;;;;;;16.32;12.90;;;;;;;15.05;86.56;93553.05;1695661;81;21118;-87
2021/09/27 09:17:19;;;;;;;17.30;13.18;;;;;;;15.08;85.83;93552.19;1718354;80;21066;-87
2021/09/27 09:19:46;;;;;;;14.73;12.70;;;;;;;15.10;85.27;93547.67;1762043;79;21553;-87
2021/09/27 09:22:29;;;;;;;13.45;11.70;;;;;;;15.11;85.29;93545.10;1767930;79;21042;-85
2021/09/27 09:24:57;;;;;;;14.15;12.50;;;;;;;15.15;85.56;93544.44;1783125;78;21027;-87
2021/09/27 09:27:26;;;;;;;16.27;12.90;;;;;;;15.19;85.36;93541.80;1777736;79;21595;-87
2021/09/27 09:29:52;;;;;;;13.03;11.68;;;;;;;15.25;84.27;93539.35;1782338;80;21029;-87
2021/09/27 09:32:28;;;;;;;14.43;12.60;;;;;;;15.28;83.50;93537.91;1771222;79;21449;-88
2021/09/27 09:35:20;;;;;;;14.18;12.28;;;;;;;15.28;83.15;93539.28;1773380;79;21120;-88
2021/09/27 09:38:04;;;;;;;13.72;12.40;;;;;;;15.26;82.45;93538.92;1774084;79;21183;-87
2021/09/27 09:40:44;;;;;;;18.98;16.12;;;;;;;15.29;81.68;93541.42;1766548;79;21133;-87
2021/09/27 09:43:13;;;;;;;14.87;13.22;;;;;;;15.34;80.75;93539.55;1787950;78;21066;-86
2021/09/27 09:45:48;;;;;;;13.88;12.37;;;;;;;15.38;80.63;93533.39;1742781;79;21097;-87
2021/09/27 09:48:22;;;;;;;13.93;11.57;;;;;;;15.43;79.67;93533.52;1777309;80;21105;-87
2021/09/27 09:50:57;;;;;;;17.90;12.63;;;;;;;15.46;77.72;93531.31;1771890;79;21035;-88
2021/09/27 09:53:33;;;;;;;13.25;11.70;;;;;;;15.46;76.82;93534.05;1775524;80;21362;-88
2021/09/27 09:56:07;;;;;;;13.00;11.68;;;;;;;15.48;76.87;93526.16;1764097;80;21117;-87
2021/09/27 09:58:46;;;;;;;13.78;11.48;;;;;;;15.54;75.50;93529.96;1728041;79;21220;-86
2021/09/27 10:01:14;;;;;;;13.03;11.68;;;;;;;15.65;75.58;93518.20;1759822;80;21076;-88
2021/09/27 10:03:45;;;;;;;14.03;11.48;;;;;;;15.78;75.36;93520.44;1747806;81;21150;-87
2021/09/27 10:06:17;;;;;;;12.75;11.48;;;;;;;15.94;76.12;93518.92;1745290;80;21073;-87
2021/09/27 10:08:54;;;;;;;9.95;8.95;;;;;;;16.09;75.57;93514.66;1715861;82;21055;-90
2021/09/27 10:11:35;;;;;;;12.13;10.93;;;;;;;16.24;66.39;93511.73;1755650;79;21029;-87
2021/09/27 10:14:21;;;;;;;10.35;9.35;;;;;;;16.33;64.60;93507.64;1785382;79;21040;-87
2021/09/27 10:16:54;;;;;;;11.48;9.35;;;;;;;16.40;66.26;93504.73;1761776;80;21030;-87
2021/09/27 10:19:28;;;;;;;11.15;9.98;;;;;;;16.44;65.56;93508.16;1733734;81;21549;-85
2021/09/27 10:22:09;;;;;;;11.65;9.43;;;;;;;16.41;64.35;93507.64;1771624;80;21089;-84
2021/09/27 10:24:42;;;;;;;12.73;9.65;;;;;;;16.36;64.44;93502.08;1780052;80;21020;-89
2021/09/27 10:27:38;;;;;;;13.05;9.08;;;;;;;16.37;66.08;93498.72;1778287;78;20932;-87
2021/09/27 10:30:11;;;;;;;11.00;9.85;;;;;;;16.42;65.65;93497.59;1783533;78;21568;-87
2021/09/27 10:32:52;;;;;;;10.95;9.88;;;;;;;16.46;64.91;93487.90;1731030;79;21110;-86
2021/09/27 10:35:48;;;;;;;11.78;9.93;;;;;;;16.51;65.98;93485.42;1701437;83;21139;-88
2021/09/27 10:38:19;;;;;;;10.50;9.45;;;;;;;16.62;66.49;93488.47;1714069;81;21045;-86
2021/09/27 10:40:48;;;;;;;9.80;8.85;;;;;;;16.73;65.72;93482.09;1714516;82;21068;-87
2021/09/27 10:43:18;;;;;;;10.25;9.13;;;;;;;16.79;65.06;93476.29;1742327;80;21126;-87
2021/09/27 10:45:49;;;;;;;12.10;9.53;;;;;;;16.80;64.55;93477.05;1750324;80;20954;-88
2021/09/27 10:48:16;;;;;;;12.60;9.78;;;;;;;16.76;63.17;93468.91;1732142;81;21049;-87
2021/09/27 10:50:51;;;;;;;11.75;8.85;;;;;;;16.72;63.74;93466.23;1693989;83;21065;-86
2021/09/27 10:53:32;;;;;;;11.28;10.10;;;;;;;16.74;63.18;93469.97;1704222;81;21110;-87
2021/09/27 10:56:19;;;;;;;12.35;11.00;;;;;;;16.71;64.08;93461.19;1739862;81;21122;-86
2021/09/27 10:58:58;;;;;;;17.45;10.80;;;;;;;16.67;65.80;93459.14;1733875;79;21068;-88
2021/09/27 11:04:01;;;;;;;12.95;9.93;;;;;;;16.65;69.02;93463.67;1755670;80;21044;-88
2021/09/27 11:06:51;;;;;;;10.23;8.40;;;;;;;16.68;68.65;93466.93;1777005;79;21045;-88
2021/09/27 11:09:32;;;;;;;11.05;9.00;;;;;;;16.67;67.67;93465.39;1768893;78;21065;-87
2021/09/27 11:12:11;;;;;;;10.68;8.93;;;;;;;16.66;67.81;93464.44;1780409;78;21030;-88
2021/09/27 11:14:49;;;;;;;11.50;8.85;;;;;;;16.67;68.68;93461.88;1774618;78;21022;-86
2021/09/27 11:17:45;;;;;;;10.75;9.13;;;;;;;16.64;69.18;93461.37;1719280;81;21082;-87
2021/09/27 11:20:38;;;;;;;17.02;8.23;;;;;;;16.58;68.65;93457.59;1716552;81;21553;-87
2021/09/27 11:23:38;;;;;;;10.98;8.50;;;;;;;16.49;68.37;93454.11;1703999;81;21166;-87
2021/09/27 11:26:22;;;;;;;12.80;9.88;;;;;;;16.40;68.93;93453.96;1723652;83;21219;-88
2021/09/27 11:29:20;;;;;;;11.28;8.80;;;;;;;16.33;69.75;93448.66;1714154;81;21052;-87
2021/09/27 11:31:50;;;;;;;9.28;8.28;;;;;;;16.31;70.37;93447.70;1780891;78;21092;-87
2021/09/27 11:34:45;;;;;;;8.55;7.70;;;;;;;16.33;68.74;93451.40;1734850;81;21085;-87
2021/09/27 11:37:27;;;;;;;13.00;9.23;;;;;;;16.31;68.28;93453.19;1786155;78;21207;-90
2021/09/27 11:40:27;;;;;;;9.30;7.83;;;;;;;16.25;68.81;93451.58;1750570;80;21125;-89
2021/09/27 11:43:34;;;;;;;11.35;8.10;;;;;;;16.18;70.01;93454.48;1737035;81;21022;-85
2021/09/27 11:46:27;;;;;;;13.70;9.15;;;;;;;16.14;70.73;93452.44;1782091;80;21548;-89
2021/09/27 11:49:02;;;;;;;9.73;8.20;;;;;;;16.10;70.20;93444.11;1727449;79;20973;-87
2021/09/27 11:51:40;;;;;;;7.87;7.08;;;;;;;16.09;71.11;93439.83;1730634;80;21229;-87
2021/09/27 11:54:28;;;;;;;10.00;7.40;;;;;;;16.08;71.49;93438.29;1754136;80;21070;-87
2021/09/27 11:57:27;;;;;;;10.00;7.78;;;;;;;16.08;71.06;93439.66;1745077;80;21525;-89
2021/09/27 12:00:29;;;;;;;10.10;8.83;;;;;;;16.06;71.66;93432.45;1705020;80;21081;-88
2021/09/27 12:03:36;;;;;;;11.10;7.70;;;;;;;16.12;72.08;93431.52;1771909;78;21069;-87
2021/09/27 12:06:26;;;;;;;27.02;23.98;;;;;;;16.23;71.30;93429.27;1777719;78;21854;-87
2021/09/27 12:09:05;;;;;;;26.20;20.32;;;;;;;16.36;70.90;93429.94;1763412;79;21050;-87
2021/09/27 12:11:37;;;;;;;11.12;9.23;;;;;;;16.41;70.43;93435.69;1763630;79;21510;-87
2021/09/27 12:14:04;;;;;;;9.28;7.85;;;;;;;16.46;70.14;93435.15;1744014;80;21508;-88
2021/09/27 12:16:38;;;;;;;7.92;6.28;;;;;;;16.49;70.28;93437.64;1699846;83;21110;-88
2021/09/27 12:19:24;;;;;;;14.15;10.55;;;;;;;16.47;69.79;93436.71;1751805;81;21504;-89
2021/09/27 12:21:57;;;;;;;;;;;;;;;16.41;70.12;93444.52;1747465;81;21026;-85
2021/09/27 12:24:26;;;;;;;11.00;7.37;;;;;;;16.37;70.91;93443.23;1775873;79;20154;-87